createdAt,value
2018-06-19T00:00:11.503Z,79.55
2018-06-19T00:00:51.894Z,79.27
2018-06-19T00:01:32.281Z,79.27
2018-06-19T00:02:12.690Z,79.46
2018-06-19T00:02:53.106Z,79.55
2018-06-19T00:03:33.448Z,79.36
2018-06-19T00:04:13.934Z,79.27
2018-06-19T00:04:54.231Z,79.65
2018-06-19T00:05:34.725Z,78.88
2018-06-19T00:06:15.813Z,79.36
2018-06-19T00:06:56.231Z,79.27
2018-06-19T00:07:36.638Z,79.17
2018-06-19T00:08:17.045Z,79.46
2018-06-19T00:08:57.449Z,79.27
2018-06-19T00:09:37.899Z,79.07
2018-06-19T00:10:18.261Z,79.07
2018-06-19T00:10:58.672Z,79.46
2018-06-19T00:11:39.080Z,79.46
2018-06-19T00:12:19.520Z,79.27
2018-06-19T00:12:59.982Z,79.27
2018-06-19T00:13:40.340Z,79.75
2018-06-19T00:14:20.766Z,79.55
2018-06-19T00:15:01.200Z,79.46
2018-06-19T00:15:41.556Z,79.17
2018-06-19T00:16:22.016Z,79.55
2018-06-19T00:17:02.321Z,79.46
2018-06-19T00:17:42.800Z,79.55
2018-06-19T00:18:23.115Z,79.36
2018-06-19T00:19:03.518Z,79.75
2018-06-19T00:19:43.941Z,79.94
2018-06-19T00:20:24.428Z,79.55
2018-06-19T00:21:04.863Z,80.22
2018-06-19T00:21:45.303Z,80.22
2018-06-19T00:22:25.770Z,79.75
2018-06-19T00:23:06.202Z,80.38
2018-06-19T00:23:46.582Z,79.94
2018-06-19T00:24:27.030Z,80.19
2018-06-19T00:25:07.404Z,80.38
2018-06-19T00:25:47.825Z,80.28
2018-06-19T00:26:28.211Z,80.38
2018-06-19T00:27:08.632Z,79.99
2018-06-19T00:27:49.044Z,79.99
2018-06-19T00:28:29.487Z,80.86
2018-06-19T00:29:09.859Z,80.96
2018-06-19T00:29:50.226Z,80.66
2018-06-19T00:30:30.722Z,80.66
2018-06-19T00:31:11.128Z,80.96
2018-06-19T00:31:51.514Z,81.24
2018-06-19T00:32:31.959Z,81.24
2018-06-19T00:33:12.411Z,80.86
2018-06-19T00:33:52.829Z,81.34
2018-06-19T00:34:33.292Z,81.24
2018-06-19T00:35:13.553Z,81.92
2018-06-19T00:35:54.165Z,81.92
2018-06-19T00:36:34.535Z,81.63
2018-06-19T00:37:14.981Z,82.2
2018-06-19T00:37:55.346Z,81.87
2018-06-19T00:38:35.827Z,82.64
2018-06-19T00:39:16.144Z,82.64
2018-06-19T00:39:56.600Z,82.74
2018-06-19T00:40:37.045Z,82.84
2018-06-19T00:41:17.419Z,82.93
2018-06-19T00:41:57.943Z,83.03
2018-06-19T00:42:38.377Z,83.03
2018-06-19T00:43:18.820Z,82.74
2018-06-19T00:43:59.186Z,82.93
2018-06-19T00:44:39.547Z,83.22
2018-06-19T00:45:19.963Z,83.7
2018-06-19T00:46:00.413Z,83.6
2018-06-19T00:46:40.746Z,83.7
2018-06-19T00:47:21.299Z,83.98
2018-06-19T00:48:01.722Z,83.7
2018-06-19T00:48:42.127Z,84.42
2018-06-19T00:49:22.520Z,84.42
2018-06-19T00:50:03.451Z,84.85
2018-06-19T00:50:43.795Z,84.71
2018-06-19T00:51:24.133Z,84.14
2018-06-19T00:52:04.623Z,84.71
2018-06-19T00:52:44.981Z,84.66
2018-06-19T00:53:25.610Z,84.85
2018-06-19T00:54:05.993Z,84.85
2018-06-19T00:54:46.443Z,84.66
2018-06-19T00:55:26.837Z,84.56
2018-06-19T00:56:07.230Z,84.61
2018-06-19T00:56:47.654Z,83.98
2018-06-19T00:57:28.095Z,84.47
2018-06-19T00:58:08.615Z,84.95
2018-06-19T00:58:48.915Z,84.08
2018-06-19T00:59:29.339Z,84.27
2018-06-19T01:00:09.761Z,84.37
2018-06-19T01:00:50.138Z,84.56
2018-06-19T01:01:30.571Z,84.37
2018-06-19T01:02:10.963Z,83.7
2018-06-19T01:02:51.336Z,84.27
2018-06-19T01:03:31.750Z,83.51
2018-06-19T01:04:12.209Z,83.22
2018-06-19T01:04:52.558Z,83.6
2018-06-19T01:05:32.923Z,83.22
2018-06-19T01:06:13.353Z,83.7
2018-06-19T01:06:53.802Z,82.93
2018-06-19T01:07:34.166Z,82.84
2018-06-19T01:08:14.522Z,82.93
2018-06-19T01:08:54.966Z,83.12
2018-06-19T01:09:35.332Z,83.31
2018-06-19T01:10:15.765Z,83.12
2018-06-19T01:10:56.148Z,83.22
2018-06-19T01:11:36.654Z,82.4
2018-06-19T01:12:17.029Z,82.93
2018-06-19T01:12:57.474Z,82.64
2018-06-19T01:13:37.797Z,82.64
2018-06-19T01:14:18.302Z,82.74
2018-06-19T01:14:58.682Z,82.45
2018-06-19T01:15:39.029Z,82.45
2018-06-19T01:16:19.428Z,82.64
2018-06-19T01:16:59.789Z,82.74
2018-06-19T01:17:40.227Z,82.64
2018-06-19T01:18:20.716Z,83.22
2018-06-19T01:19:01.102Z,83.98
2018-06-19T01:19:41.470Z,83.7
2018-06-19T01:20:21.857Z,83.89
2018-06-19T01:21:02.253Z,83.7
2018-06-19T01:21:42.692Z,83.03
2018-06-19T01:22:23.122Z,82.93
2018-06-19T01:23:03.464Z,83.12
2018-06-19T01:23:43.839Z,82.84
2018-06-19T01:24:24.309Z,82.84
2018-06-19T01:25:04.687Z,82.64
2018-06-19T01:25:45.072Z,83.31
2018-06-19T01:26:25.449Z,83.12
2018-06-19T01:27:05.857Z,83.6
2018-06-19T01:27:46.207Z,83.12
2018-06-19T01:28:27.255Z,82.93
2018-06-19T01:29:07.642Z,83.12
2018-06-19T01:29:48.118Z,83.6
2018-06-19T01:30:28.488Z,83.31
2018-06-19T01:31:08.917Z,83.89
2018-06-19T01:31:49.341Z,83.22
2018-06-19T01:32:29.720Z,82.84
2018-06-19T01:33:10.203Z,83.89
2018-06-19T01:33:50.577Z,83.12
2018-06-19T01:34:30.943Z,83.03
2018-06-19T01:35:11.328Z,83.7
2018-06-19T01:35:51.752Z,83.6
2018-06-19T01:36:32.229Z,83.7
2018-06-19T01:37:12.685Z,83.6
2018-06-19T01:37:53.022Z,82.93
2018-06-19T01:38:33.426Z,82.93
2018-06-19T01:39:13.845Z,83.22
2018-06-19T01:39:54.223Z,83.22
2018-06-19T01:40:34.584Z,82.84
2018-06-19T01:41:14.968Z,83.85
2018-06-19T01:41:55.393Z,83.75
2018-06-19T01:42:35.819Z,84.23
2018-06-19T01:43:16.209Z,84.04
2018-06-19T01:43:56.616Z,84.56
2018-06-19T01:44:36.989Z,83.89
2018-06-19T01:45:17.424Z,83.51
2018-06-19T01:45:57.777Z,83.65
2018-06-19T01:46:38.136Z,83.7
2018-06-19T01:47:18.546Z,83.03
2018-06-19T01:47:58.904Z,83.85
2018-06-19T01:48:39.347Z,82.89
2018-06-19T01:49:19.811Z,83.08
2018-06-19T01:50:00.190Z,83.18
2018-06-19T01:50:40.592Z,82.79
2018-06-19T01:51:20.952Z,83.18
2018-06-19T01:52:01.369Z,83.85
2018-06-19T01:52:41.915Z,83.85
2018-06-19T01:53:22.241Z,84.23
2018-06-19T01:54:02.704Z,83.94
2018-06-19T01:54:43.011Z,84.14
2018-06-19T01:55:23.416Z,83.94
2018-06-19T01:56:03.831Z,84.33
2018-06-19T01:56:44.270Z,83.65
2018-06-19T01:57:24.641Z,83.65
2018-06-19T01:58:05.065Z,84.42
2018-06-19T01:58:45.520Z,83.75
2018-06-19T01:59:25.974Z,83.56
2018-06-19T02:00:06.393Z,83.85
2018-06-19T02:00:46.838Z,83.75
2018-06-19T02:01:27.121Z,83.37
2018-06-19T02:02:07.589Z,83.65
2018-06-19T02:04:22.887Z,83.94
2018-06-19T02:05:03.734Z,84.52
2018-06-19T02:05:44.035Z,83.94
2018-06-19T02:06:24.451Z,84.52
2018-06-19T02:07:04.941Z,84.33
2018-06-19T02:07:45.335Z,84.14
2018-06-19T02:08:25.695Z,84.33
2018-06-19T02:09:06.054Z,83.37
2018-06-19T02:09:46.499Z,83.94
2018-06-19T02:10:26.886Z,84.23
2018-06-19T02:11:07.324Z,84.23
2018-06-19T02:11:47.796Z,84.23
2018-06-19T02:12:28.141Z,84.04
2018-06-19T02:13:08.553Z,83.94
2018-06-19T02:13:48.957Z,83.94
2018-06-19T02:14:29.347Z,84.04
2018-06-19T02:15:09.739Z,83.94
2018-06-19T02:15:50.189Z,83.94
2018-06-19T02:16:30.568Z,84.52
2018-06-19T02:17:10.930Z,84.81
2018-06-19T02:17:51.314Z,84.52
2018-06-19T02:18:31.765Z,84.52
2018-06-19T02:19:12.113Z,84.33
2018-06-19T02:19:52.549Z,84.81
2018-06-19T02:20:32.971Z,84.52
2018-06-19T02:21:13.331Z,84.71
2018-06-19T02:21:53.801Z,84.81
2018-06-19T02:22:34.218Z,84.71
2018-06-19T02:23:14.633Z,84.61
2018-06-19T02:23:54.978Z,84.71
2018-06-19T02:24:35.477Z,84.67
2018-06-19T02:25:15.894Z,84.71
2018-06-19T02:25:56.271Z,84.81
2018-06-19T02:26:36.672Z,84.71
2018-06-19T02:27:17.059Z,85.67
2018-06-19T02:27:57.461Z,85.34
2018-06-19T02:28:37.845Z,85.77
2018-06-19T02:29:18.255Z,85.25
2018-06-19T02:29:58.569Z,85.44
2018-06-19T02:30:39.005Z,85.44
2018-06-19T02:31:19.457Z,85.48
2018-06-19T02:31:59.834Z,85.28
2018-06-19T02:32:40.231Z,85.58
2018-06-19T02:33:20.624Z,84.77
2018-06-19T02:34:01.083Z,85.63
2018-06-19T02:34:41.422Z,85.72
2018-06-19T02:35:21.792Z,85.19
2018-06-19T02:36:02.203Z,85.44
2018-06-19T02:36:42.601Z,85.25
2018-06-19T02:37:22.908Z,85.25
2018-06-19T02:38:03.335Z,85.25
2018-06-19T02:38:43.726Z,85.53
2018-06-19T02:39:24.077Z,85.53
2018-06-19T02:40:04.546Z,85.25
2018-06-19T02:40:44.975Z,85.25
2018-06-19T02:41:25.406Z,85.34
2018-06-19T02:42:05.820Z,85.34
2018-06-19T02:42:46.251Z,85.53
2018-06-19T02:43:26.587Z,85.25
2018-06-19T02:44:06.979Z,85.44
2018-06-19T02:44:47.400Z,85.63
2018-06-19T02:45:27.755Z,85.53
2018-06-19T02:46:08.185Z,85.25
2018-06-19T02:46:48.632Z,85.15
2018-06-19T02:47:29.037Z,85.25
2018-06-19T02:48:09.453Z,85.44
2018-06-19T02:48:49.817Z,85.63
2018-06-19T02:49:30.218Z,86.21
2018-06-19T02:50:10.564Z,86.11
2018-06-19T02:50:50.957Z,86.01
2018-06-19T02:51:31.370Z,86.3
2018-06-19T02:52:11.711Z,85.92
2018-06-19T02:52:52.126Z,85.92
2018-06-19T02:53:32.559Z,86.3
2018-06-19T02:54:12.953Z,86.21
2018-06-19T02:54:53.327Z,86.01
2018-06-19T02:55:33.738Z,86.68
2018-06-19T02:56:14.156Z,86.21
2018-06-19T02:56:54.539Z,86.78
2018-06-19T02:57:34.932Z,86.49
2018-06-19T02:58:15.290Z,86.21
2018-06-19T02:58:55.740Z,87.16
2018-06-19T02:59:36.081Z,86.97
2018-06-19T03:00:16.513Z,86.49
2018-06-19T03:00:56.901Z,87.26
2018-06-19T03:01:37.379Z,86.58
2018-06-19T03:02:17.734Z,86.78
2018-06-19T03:02:58.085Z,86.01
2018-06-19T03:03:38.589Z,86.21
2018-06-19T03:04:18.953Z,86.88
2018-06-19T03:04:59.265Z,87.35
2018-06-19T03:05:39.705Z,86.58
2018-06-19T03:06:20.050Z,86.97
2018-06-19T03:07:00.479Z,87.26
2018-06-19T03:07:40.861Z,86.88
2018-06-19T03:08:21.328Z,86.21
2018-06-19T03:09:01.711Z,86.01
2018-06-19T03:09:42.124Z,86.49
2018-06-19T03:10:22.514Z,86.01
2018-06-19T03:11:02.861Z,86.01
2018-06-19T03:11:43.310Z,86.01
2018-06-19T03:12:23.760Z,86.3
2018-06-19T03:13:04.127Z,86.21
2018-06-19T03:13:44.572Z,86.3
2018-06-19T03:14:24.918Z,86.21
2018-06-19T03:15:05.373Z,86.3
2018-06-19T03:15:45.742Z,86.49
2018-06-19T03:16:26.110Z,86.11
2018-06-19T03:17:06.560Z,86.11
2018-06-19T03:17:47.107Z,86.11
2018-06-19T03:18:27.514Z,86.93
2018-06-19T03:19:07.918Z,86.97
2018-06-19T03:19:48.330Z,87.16
2018-06-19T03:20:28.786Z,87.45
2018-06-19T03:21:09.104Z,86.93
2018-06-19T03:21:49.565Z,87.5
2018-06-19T03:22:29.976Z,87.02
2018-06-19T03:23:10.362Z,87.84
2018-06-19T03:23:50.751Z,87.84
2018-06-19T03:24:31.195Z,87.07
2018-06-19T03:25:11.598Z,87.26
2018-06-19T03:25:51.988Z,87.07
2018-06-19T03:26:32.380Z,87.74
2018-06-19T03:27:12.806Z,87.55
2018-06-19T03:27:53.185Z,87.74
2018-06-19T03:28:33.605Z,87.07
2018-06-19T03:29:14.004Z,87.74
2018-06-19T03:29:54.522Z,87.84
2018-06-19T03:30:34.969Z,87.74
2018-06-19T03:31:15.405Z,87.93
2018-06-19T03:31:55.866Z,88.12
2018-06-19T03:32:36.247Z,88.02
2018-06-19T03:33:16.652Z,87.35
2018-06-19T03:33:57.059Z,87.35
2018-06-19T03:34:37.526Z,87.45
2018-06-19T03:35:17.930Z,87.3
2018-06-19T03:35:58.324Z,86.97
2018-06-19T03:36:38.641Z,86.25
2018-06-19T03:37:19.115Z,86.05
2018-06-19T03:37:59.557Z,86.15
2018-06-19T03:38:39.894Z,86.44
2018-06-19T03:39:20.400Z,86.44
2018-06-19T03:40:00.820Z,85.96
2018-06-19T03:40:41.149Z,86.15
2018-06-19T03:41:21.556Z,85.67
2018-06-19T03:42:01.989Z,85.67
2018-06-19T03:42:42.378Z,85.19
2018-06-19T03:43:22.822Z,85.28
2018-06-19T03:44:03.195Z,85.14
2018-06-19T03:44:43.609Z,84.52
2018-06-19T03:45:24.023Z,84.47
2018-06-19T03:46:04.444Z,84.56
2018-06-19T03:46:44.942Z,84.47
2018-06-19T03:47:25.263Z,84.08
2018-06-19T03:48:05.706Z,84.08
2018-06-19T03:48:46.132Z,83.8
2018-06-19T03:49:26.534Z,84.37
2018-06-19T03:50:06.945Z,84.37
2018-06-19T03:50:47.302Z,84.27
2018-06-19T03:51:27.749Z,83.89
2018-06-19T03:52:08.158Z,83.8
2018-06-19T03:52:48.604Z,82.78
2018-06-19T03:53:29.003Z,82.78
2018-06-19T03:54:09.427Z,82.49
2018-06-19T03:54:49.812Z,82.97
2018-06-19T03:55:30.245Z,82.4
2018-06-19T03:56:10.652Z,82.49
2018-06-19T03:56:51.043Z,82.3
2018-06-19T03:57:31.513Z,82.68
2018-06-19T03:58:11.887Z,82.87
2018-06-19T03:58:52.336Z,82.3
2018-06-19T03:59:32.676Z,82.01
2018-06-19T04:00:13.144Z,81.63
2018-06-19T04:00:53.654Z,81.63
2018-06-19T04:01:34.060Z,81.34
2018-06-19T04:02:14.457Z,81.72
2018-06-19T04:43:39.048Z,83.54
2018-06-19T04:44:19.609Z,83.64
2018-06-19T04:44:59.798Z,83.64
2018-06-19T04:45:40.292Z,83.78
2018-06-19T04:46:20.638Z,83.59
2018-06-19T04:47:01.166Z,84.36
2018-06-19T04:47:41.492Z,83.87
2018-06-19T04:48:21.946Z,83.78
2018-06-19T04:49:02.543Z,83.78
2018-06-19T04:49:43.188Z,83.59
2018-06-19T04:50:23.483Z,83.69
2018-06-19T04:51:04.865Z,83.01
2018-06-19T04:51:44.530Z,83.2
2018-06-19T04:55:16.970Z,82.09
2018-06-19T04:55:58.387Z,82.29
2018-06-19T04:56:38.768Z,81.81
2018-06-19T04:58:02.459Z,81.61
2018-06-19T04:58:45.869Z,81.9
2018-06-19T04:59:26.359Z,81.04
2018-06-19T05:00:06.667Z,80.94
2018-06-19T05:00:48.217Z,81.04
2018-06-19T05:01:29.415Z,80.55
2018-06-19T05:02:10.691Z,80.6
2018-06-19T05:02:51.240Z,80.79
2018-06-19T05:03:31.628Z,80.21
2018-06-19T05:04:16.473Z,80.02
2018-06-19T05:04:56.844Z,80.02
2018-06-19T05:05:37.336Z,80.02
2018-06-19T05:06:18.631Z,79.92
2018-06-19T05:06:58.955Z,80.02
2018-06-19T05:07:40.524Z,80.02
2018-06-19T05:08:20.797Z,79.92
2018-06-19T05:09:06.338Z,80.02
2018-06-19T05:09:47.549Z,79.15
2018-06-19T05:10:28.200Z,79.82
2018-06-19T05:11:09.501Z,80.11
2018-06-19T05:11:50.150Z,80.02
2018-06-19T05:12:31.391Z,79.82
2018-06-19T05:13:12.554Z,79.25
2018-06-19T05:13:54.028Z,79.82
2018-06-19T05:14:34.548Z,79.92
2018-06-19T05:15:15.164Z,79.63
2018-06-19T05:15:56.856Z,79.44
2018-06-19T05:16:38.029Z,79.53
2018-06-19T05:19:31.245Z,79.63
2018-06-19T05:20:31.589Z,79.35
2018-06-19T05:21:13.607Z,79.44
2018-06-19T05:21:54.058Z,79.44
2018-06-19T05:22:34.515Z,79.53
2018-06-19T05:23:16.267Z,79.05
2018-06-19T05:23:57.405Z,79.44
2018-06-19T05:24:41.181Z,79.15
2018-06-19T05:25:21.744Z,79.82
2018-06-19T05:26:03.633Z,79.82
2018-06-19T05:26:47.203Z,79.73
2018-06-19T05:27:29.236Z,79.35
2018-06-19T05:28:09.721Z,79.35
2018-06-19T05:28:52.153Z,79.05
2018-06-19T05:37:31.073Z,78.86
2018-06-19T05:38:11.283Z,78.86
2018-06-19T05:38:53.472Z,78.77
2018-06-19T05:43:20.735Z,78.13
2018-06-19T05:44:03.750Z,78.23
2018-06-19T05:44:44.234Z,78.03
2018-06-19T05:45:24.835Z,77.84
2018-06-19T05:46:05.339Z,77.65
2018-06-19T05:46:45.728Z,77.65
2018-06-19T05:47:26.196Z,77.75
2018-06-19T05:48:06.663Z,77.17
2018-06-19T05:48:47.108Z,77.36
2018-06-19T05:49:27.593Z,77.46
2018-06-19T05:50:08.036Z,76.92
2018-06-19T05:50:48.487Z,77.17
2018-06-19T05:51:28.956Z,77.01
2018-06-19T05:52:09.387Z,76.98
2018-06-19T05:52:50.665Z,76.69
2018-06-19T05:53:31.074Z,76.78
2018-06-19T05:54:11.490Z,76.78
2018-06-19T05:54:51.942Z,76.73
2018-06-19T05:55:32.416Z,76.82
2018-06-19T05:56:12.867Z,76.34
2018-06-19T05:56:53.326Z,76.34
2018-06-19T05:57:33.779Z,75.86
2018-06-19T05:58:14.203Z,76.34
2018-06-19T05:58:54.711Z,76.53
2018-06-19T05:59:35.094Z,76.34
2018-06-19T06:00:15.550Z,77.11
2018-06-19T06:00:55.943Z,76.25
2018-06-19T06:01:36.346Z,76.25
2018-06-19T06:02:16.764Z,76.34
2018-06-19T06:02:57.201Z,77.11
2018-06-19T06:03:37.646Z,77.11
2018-06-19T06:04:18.050Z,76.63
2018-06-19T06:04:58.544Z,76.63
2018-06-19T06:05:39.125Z,76.82
2018-06-19T06:06:19.478Z,76.92
2018-06-19T06:07:00.035Z,77.11
2018-06-19T06:07:41.006Z,76.82
2018-06-19T06:08:21.235Z,76.82
2018-06-19T06:09:01.684Z,76.73
2018-06-19T06:09:42.268Z,76.92
2018-06-19T06:10:22.988Z,76.82
2018-06-19T06:11:03.551Z,76.92
2018-06-19T06:11:45.094Z,76.82
2018-06-19T06:12:25.606Z,77.01
2018-06-19T06:13:06.071Z,76.73
2018-06-19T06:13:46.522Z,76.15
2018-06-19T06:14:28.472Z,76.53
2018-06-19T06:15:07.983Z,77.01
2018-06-19T06:15:48.414Z,77.21
2018-06-19T06:16:28.921Z,76.53
2018-06-19T06:17:09.288Z,76.34
2018-06-19T06:17:49.819Z,76.34
2018-06-19T06:18:30.383Z,75.96
2018-06-19T06:19:10.775Z,75.76
2018-06-19T06:19:51.272Z,75.76
2018-06-19T06:20:31.794Z,75.42
2018-06-19T06:21:12.451Z,75.42
2018-06-19T06:21:53.012Z,75.42
2018-06-19T06:22:33.360Z,75.13
2018-06-19T06:23:13.853Z,74.84
2018-06-19T06:23:54.236Z,74.93
2018-06-19T06:24:34.707Z,74.93
2018-06-19T06:25:15.202Z,74.84
2018-06-19T06:25:55.723Z,75.13
2018-06-19T06:26:36.268Z,74.65
2018-06-19T06:27:17.524Z,74.45
2018-06-19T06:27:57.302Z,74.2
2018-06-19T06:28:37.808Z,74.3
2018-06-19T06:29:18.551Z,74.58
2018-06-19T06:29:59.675Z,74.3
2018-06-19T06:30:44.763Z,74.3
2018-06-19T06:34:47.667Z,74.1
2018-06-19T06:35:28.038Z,74.01
2018-06-19T06:36:08.295Z,74.1
2018-06-19T06:36:48.731Z,73.82
2018-06-19T06:37:29.946Z,73.43
2018-06-19T06:38:12.067Z,73.62
2018-06-19T06:38:52.430Z,73.43
2018-06-19T06:39:36.475Z,73.33
2018-06-19T06:40:21.898Z,73.33
2018-06-19T06:42:05.466Z,73.33
2018-06-19T06:44:19.968Z,73.43
2018-06-19T06:53:15.474Z,72.31
2018-06-19T06:53:56.670Z,72.31
2018-06-19T06:54:38.081Z,72.41
2018-06-19T06:55:18.634Z,72.5
2018-06-19T06:55:59.792Z,72.21
2018-06-19T06:56:40.371Z,72.31
2018-06-19T06:57:21.166Z,71.92
2018-06-19T06:58:02.787Z,72.12
2018-06-19T06:58:43.119Z,71.96
2018-06-19T06:59:23.417Z,72.63
2018-06-19T07:00:04.283Z,72.44
2018-06-19T07:00:44.784Z,72.44
2018-06-19T07:01:25.600Z,71.96
2018-06-19T07:02:10.317Z,71.38
2018-06-19T07:02:51.284Z,71.58
2018-06-19T07:03:32.655Z,71.67
2018-06-19T07:04:13.603Z,71.38
2018-06-19T07:04:53.427Z,71.38
2018-06-19T07:05:35.082Z,71.28
2018-06-19T07:06:15.219Z,71.86
2018-06-19T07:06:57.288Z,71.22
2018-06-19T07:07:37.606Z,71
2018-06-19T07:08:19.108Z,70.9
2018-06-19T07:08:59.460Z,71.77
2018-06-19T07:09:40.078Z,71.19
2018-06-19T07:10:20.792Z,71.67
2018-06-19T07:11:01.022Z,71.48
2018-06-19T07:11:41.814Z,71.58
2018-06-19T07:12:22.630Z,71.48
2018-06-19T07:13:03.888Z,71.58
2018-06-19T07:13:43.836Z,71.77
2018-06-19T07:14:25.141Z,71.19
2018-06-19T07:15:04.918Z,71.67
2018-06-19T07:15:45.535Z,71.44
2018-06-19T07:16:25.785Z,71.83
2018-06-19T07:17:06.217Z,72.63
2018-06-19T07:17:46.601Z,72.21
2018-06-19T07:18:27.050Z,72.25
2018-06-19T07:19:07.614Z,72.63
2018-06-19T07:19:48.863Z,72.25
2018-06-19T07:20:29.345Z,72.25
2018-06-19T07:21:09.717Z,71.96
2018-06-19T07:21:50.176Z,72.15
2018-06-19T07:22:30.658Z,72.54
2018-06-19T07:23:11.343Z,71.86
2018-06-19T07:23:58.614Z,71.67
2018-06-19T07:24:39.502Z,71.86
2018-06-19T07:25:20.001Z,71.38
2018-06-19T07:26:00.819Z,71.38
2018-06-19T07:26:41.753Z,71.58
2018-06-19T07:27:22.151Z,71.38
2018-06-19T07:28:03.091Z,71.38
2018-06-19T07:28:43.362Z,71.09
2018-06-19T07:34:58.351Z,71.28
2018-06-19T07:35:56.434Z,71.28
2018-06-19T07:36:37.739Z,71.03
2018-06-19T07:37:18.505Z,71.03
2018-06-19T07:38:00.806Z,70.84
2018-06-19T07:38:40.771Z,71.38
2018-06-19T07:39:21.413Z,70.9
2018-06-19T07:40:02.853Z,71.19
2018-06-19T07:40:43.517Z,71.38
2018-06-19T07:41:23.575Z,71.67
2018-06-19T07:42:04.880Z,71.51
2018-06-19T07:42:45.352Z,71.7
2018-06-19T07:43:26.818Z,71.61
2018-06-19T07:44:07.458Z,71.58
2018-06-19T07:44:48.240Z,71.58
2018-06-19T07:45:28.548Z,71.67
2018-06-19T07:46:09.740Z,71.96
2018-06-19T07:46:50.851Z,71.86
2018-06-19T07:47:31.398Z,72.25
2018-06-19T07:48:11.853Z,72.54
2018-06-19T07:48:53.258Z,72.34
2018-06-19T07:49:33.724Z,72.44
2018-06-19T07:50:14.070Z,72.89
2018-06-19T07:50:54.728Z,73.11
2018-06-19T07:51:35.285Z,73.08
2018-06-19T07:52:15.860Z,73.47
2018-06-19T07:52:59.640Z,73.85
2018-06-19T07:53:40.398Z,73.41
2018-06-19T07:54:25.158Z,73.41
2018-06-19T07:55:07.959Z,73.02
2018-06-19T07:55:55.006Z,73.21
2018-06-19T07:56:31.263Z,72.63
2018-06-19T07:58:35.551Z,72.09
2018-06-19T07:59:17.694Z,71.7
2018-06-19T07:59:57.998Z,71.51
2018-06-19T08:00:39.115Z,71.7
2018-06-19T08:01:19.901Z,71.7
2018-06-19T08:02:00.292Z,71.42
2018-06-19T08:04:57.544Z,71.32
2018-06-19T08:05:45.809Z,71.22
2018-06-19T08:06:34.649Z,71.03
2018-06-19T08:07:23.111Z,71.03
2018-06-19T08:08:12.511Z,71.22
2018-06-19T08:08:54.378Z,70.94
2018-06-19T08:09:34.173Z,70.84
2018-06-19T08:10:14.654Z,71.12
2018-06-19T08:10:55.115Z,70.94
2018-06-19T08:11:35.712Z,70.45
2018-06-19T08:12:16.140Z,71.42
2018-06-19T08:12:56.717Z,70.45
2018-06-19T08:13:37.301Z,70.74
2018-06-19T08:14:17.832Z,70.78
2018-06-19T08:14:58.407Z,70.48
2018-06-19T08:15:38.792Z,70.29
2018-06-19T08:16:19.383Z,70.29
2018-06-19T08:16:59.965Z,70.48
2018-06-19T08:17:40.538Z,70.29
2018-06-19T08:18:20.889Z,70.29
2018-06-19T08:19:01.335Z,69.62
2018-06-19T08:19:41.805Z,69.9
2018-06-19T08:20:22.223Z,70.2
2018-06-19T08:21:02.860Z,70
2018-06-19T08:21:43.103Z,70.29
2018-06-19T08:22:23.506Z,70.29
2018-06-19T08:23:04.000Z,70.39
2018-06-19T08:23:47.308Z,70.29
2018-06-19T08:24:34.577Z,70.2
2018-06-19T08:26:14.267Z,69.81
2018-06-19T08:26:54.721Z,69.9
2018-06-19T08:27:35.218Z,69.62
2018-06-19T08:28:15.511Z,70.1
2018-06-19T08:28:55.891Z,70.39
2018-06-19T08:29:36.309Z,69.71
2018-06-19T08:30:16.807Z,69.62
2018-06-19T08:30:57.129Z,69.46
2018-06-19T08:31:37.563Z,69.65
2018-06-19T08:32:18.012Z,69.13
2018-06-19T08:36:10.936Z,70.1
2018-06-19T08:36:52.373Z,70.29
2018-06-19T08:37:32.562Z,70.29
2018-06-19T08:38:13.140Z,69.81
2018-06-19T08:38:53.602Z,70.36
2018-06-19T08:39:34.312Z,70
2018-06-19T08:40:16.138Z,70.1
2018-06-19T08:40:57.278Z,70.1
2018-06-19T08:41:37.310Z,70.29
2018-06-19T08:42:18.957Z,70.39
2018-06-19T08:42:59.726Z,69.62
2018-06-19T08:43:41.705Z,70.39
2018-06-19T08:44:22.306Z,70.2
2018-06-19T08:45:02.919Z,70.39
2018-06-19T08:45:44.306Z,70.48
2018-06-19T08:46:24.823Z,70
2018-06-19T08:47:05.381Z,70.48
2018-06-19T08:47:46.117Z,70.39
2018-06-19T08:48:27.001Z,70
2018-06-19T08:49:08.190Z,70.48
2018-06-19T08:49:49.310Z,70.48
2018-06-19T08:50:29.943Z,70.2
2018-06-19T08:51:10.475Z,70.2
2018-06-19T08:51:51.594Z,69.71
2018-06-19T08:52:35.799Z,70.48
2018-06-19T08:53:15.824Z,69.62
2018-06-19T08:53:56.656Z,70.1
2018-06-19T08:54:37.011Z,70.2
2018-06-19T08:55:18.297Z,70.39
2018-06-19T08:55:58.782Z,70.2
2018-06-19T08:56:40.292Z,70.29
2018-06-19T08:57:21.032Z,70.39
2018-06-19T08:58:02.782Z,70.29
2018-06-19T08:58:43.402Z,70.45
2018-06-19T08:59:23.811Z,70.54
2018-06-19T09:00:06.828Z,70.64
2018-06-19T09:00:47.884Z,70.68
2018-06-19T09:01:29.421Z,70.58
2018-06-19T09:02:10.010Z,70.29
2018-06-19T09:02:51.188Z,70.84
2018-06-19T09:03:32.515Z,71.06
2018-06-19T09:04:13.343Z,70.39
2018-06-19T09:04:54.791Z,70.58
2018-06-19T09:05:34.583Z,70.58
2018-06-19T09:06:16.794Z,70.68
2018-06-19T09:06:56.817Z,70.29
2018-06-19T09:07:38.322Z,70.29
2018-06-19T09:08:19.775Z,70.48
2018-06-19T09:09:01.362Z,70.58
2018-06-19T09:09:42.285Z,70.58
2018-06-19T09:10:23.301Z,70.58
2018-06-19T09:11:05.116Z,71.26
2018-06-19T09:11:45.643Z,71.06
2018-06-19T09:12:26.817Z,71.16
2018-06-19T09:13:08.298Z,71.55
2018-06-19T09:13:49.755Z,71.94
2018-06-19T09:14:32.887Z,72.13
2018-06-19T09:15:14.530Z,72.03
2018-06-19T09:15:54.677Z,71.84
2018-06-19T09:16:35.188Z,71.55
2018-06-19T09:17:16.136Z,71.26
2018-06-19T09:17:56.526Z,71.7
2018-06-19T09:18:37.195Z,71.45
2018-06-19T09:19:20.067Z,71.26
2018-06-19T09:19:59.720Z,71.55
2018-06-19T09:20:41.895Z,71.26
2018-06-19T09:21:23.408Z,71.06
2018-06-19T09:22:03.261Z,71.55
2018-06-19T09:22:44.307Z,71.36
2018-06-19T09:23:26.270Z,71.26
2018-06-19T09:24:07.448Z,70.87
2018-06-19T09:24:48.347Z,71.06
2018-06-19T09:25:30.244Z,70.97
2018-06-19T09:26:12.929Z,71.16
2018-06-19T09:26:56.017Z,70.52
2018-06-19T09:27:36.716Z,70.9
2018-06-19T09:28:17.409Z,70.42
2018-06-19T09:28:59.326Z,70.9
2018-06-19T09:29:39.372Z,70.62
2018-06-19T09:30:21.964Z,70.81
2018-06-19T09:31:02.552Z,70.52
2018-06-19T09:31:46.279Z,71.2
2018-06-19T09:32:26.801Z,70.62
2018-06-19T09:33:08.801Z,71.3
2018-06-19T09:33:50.694Z,71.64
2018-06-19T09:34:31.059Z,72.32
2018-06-19T09:35:12.970Z,73
2018-06-19T09:35:52.728Z,73.48
2018-06-19T09:36:34.888Z,73.38
2018-06-19T09:37:16.323Z,74.25
2018-06-19T09:37:58.450Z,73.19
2018-06-19T09:38:38.914Z,73.86
2018-06-19T09:39:19.594Z,73.93
2018-06-19T09:40:02.312Z,74.06
2018-06-19T09:40:45.764Z,74.83
2018-06-19T09:43:07.842Z,75.41
2018-06-19T09:43:48.254Z,75.99
2018-06-19T09:44:28.734Z,76.09
2018-06-19T09:45:10.730Z,75.6
2018-06-19T09:45:52.158Z,75.22
2018-06-19T09:49:20.474Z,74.44
2018-06-19T09:50:00.890Z,74.54
2018-06-19T09:50:41.624Z,74.73
2018-06-19T09:51:22.411Z,74.19
2018-06-19T09:52:02.885Z,74
2018-06-19T09:52:44.407Z,73.03
2018-06-19T09:53:25.046Z,72.88
2018-06-19T09:54:05.766Z,71.91
2018-06-19T09:54:46.577Z,71.52
2018-06-19T09:55:26.580Z,71.14
2018-06-19T09:56:07.069Z,70.59
2018-06-19T09:56:49.314Z,70.78
2018-06-19T09:57:29.065Z,70.98
2018-06-19T09:58:09.506Z,70.5
2018-06-19T09:58:50.092Z,70.01
2018-06-19T09:59:30.978Z,69.92
2018-06-19T10:00:11.450Z,70.1
2018-06-19T10:00:51.931Z,70.98
2018-06-19T10:01:32.646Z,71.08
2018-06-19T10:02:16.012Z,72.14
2018-06-19T10:02:57.439Z,73.1
2018-06-19T10:03:38.507Z,72.91
2018-06-19T10:42:48.847Z,72.55
2018-06-19T10:43:30.358Z,72.52
2018-06-19T10:44:10.623Z,72.32
2018-06-19T10:44:51.089Z,72.9
2018-06-19T10:45:31.453Z,72.42
2018-06-19T10:46:11.949Z,72.9
2018-06-19T10:46:52.345Z,73.19
2018-06-19T10:47:33.159Z,73.67
2018-06-19T10:48:13.352Z,73
2018-06-19T10:48:53.811Z,72.45
2018-06-19T10:49:34.227Z,72.71
2018-06-19T10:50:14.652Z,72.84
2018-06-19T10:50:55.226Z,72.45
2018-06-19T10:51:35.706Z,72.06
2018-06-19T10:52:16.603Z,72.26
2018-06-19T10:53:16.723Z,72.45
2018-06-19T10:53:57.674Z,71.39
2018-06-19T10:54:38.183Z,71.97
2018-06-19T10:55:18.785Z,72.16
2018-06-19T10:56:01.697Z,71.14
2018-06-19T10:56:42.765Z,71.14
2018-06-19T10:57:27.072Z,70.65
2018-06-19T11:07:18.449Z,71.1